Aviation Digital Data Service (ADDS)

Output produced by METARs form (1240 UTC 24 April 2014)
found at http://aviationweather.gov/adds/metars/
 
KBFD 241123Z 2412/2512 30005KT P6SM SKC 
     FM241500 32010KT P6SM SCT250 
     FM250400 12005KT P6SM BKN250